createdAt,value
2022-10-03T00:01:22.121Z,62.87
2022-10-03T00:03:37.102Z,64.06
2022-10-03T00:05:57.472Z,63.30
2022-10-03T00:08:28.987Z,64.04
2022-10-03T00:10:38.910Z,64.34
2022-10-03T00:12:47.475Z,64.31
2022-10-03T00:15:09.884Z,64.78
2022-10-03T00:17:28.274Z,64.20
2022-10-03T00:19:59.629Z,64.47
2022-10-03T00:22:21.506Z,64.13
2022-10-03T00:24:47.573Z,64.95
2022-10-03T00:26:56.505Z,65.02
2022-10-03T00:29:20.651Z,64.96
2022-10-03T00:31:43.086Z,64.98
2022-10-03T00:34:09.768Z,64.91
2022-10-03T00:36:42.863Z,64.83
2022-10-03T00:39:21.104Z,65.87
2022-10-03T00:41:55.697Z,64.96
2022-10-03T00:44:16.784Z,64.46
2022-10-03T00:46:37.479Z,63.98
2022-10-03T00:49:06.821Z,64.97
2022-10-03T00:51:27.117Z,64.92
2022-10-03T00:53:47.129Z,64.38
2022-10-03T00:56:03.648Z,65.13
2022-10-03T00:58:32.019Z,65.25
2022-10-03T01:00:35.559Z,64.42
2022-10-03T01:03:09.593Z,65.05
2022-10-03T01:05:48.401Z,64.89
2022-10-03T01:07:58.211Z,64.29
2022-10-03T01:10:37.063Z,64.54
2022-10-03T01:13:22.188Z,64.92
2022-10-03T01:15:43.578Z,65.17
2022-10-03T01:17:54.056Z,64.80
2022-10-03T01:20:18.416Z,64.55
2022-10-03T01:22:48.915Z,64.99
2022-10-03T01:24:53.779Z,64.15
2022-10-03T01:27:00.896Z,65.91
2022-10-03T01:29:29.294Z,65.21
2022-10-03T01:31:39.118Z,65.12
2022-10-03T01:33:49.146Z,65.00
2022-10-03T01:36:03.292Z,64.98
2022-10-03T01:38:28.164Z,64.97
2022-10-03T01:41:15.185Z,65.35
2022-10-03T01:43:33.040Z,64.66
2022-10-03T01:45:49.759Z,65.17
2022-10-03T01:48:01.311Z,65.26
2022-10-03T01:50:08.925Z,64.60
2022-10-03T01:52:37.246Z,65.23
2022-10-03T01:55:08.300Z,65.20
2022-10-03T01:57:41.996Z,65.42
2022-10-03T02:00:02.284Z,66.01
2022-10-03T02:02:42.761Z,65.71
2022-10-03T02:04:52.847Z,65.83
2022-10-03T02:07:03.175Z,65.31
2022-10-03T02:09:16.880Z,65.30
2022-10-03T02:11:58.148Z,67.07
2022-10-03T02:14:18.068Z,65.98
2022-10-03T02:16:44.975Z,66.32
2022-10-03T02:18:49.963Z,65.93
2022-10-03T02:21:03.088Z,66.04
2022-10-03T02:23:24.051Z,67.08
2022-10-03T02:25:31.924Z,66.84
2022-10-03T02:28:15.261Z,66.59
2022-10-03T02:30:20.081Z,65.47
2022-10-03T02:32:52.154Z,66.00
2022-10-03T02:35:08.040Z,66.22
2022-10-03T02:37:47.271Z,66.12
2022-10-03T02:40:08.715Z,65.92
2022-10-03T02:42:55.300Z,66.06
2022-10-03T02:45:21.335Z,66.09
2022-10-03T02:47:51.262Z,66.10
2022-10-03T02:50:13.795Z,66.35
2022-10-03T02:52:45.871Z,66.56
2022-10-03T02:55:06.112Z,66.72
2022-10-03T02:57:39.742Z,66.73
2022-10-03T03:00:05.945Z,67.00
2022-10-03T03:02:48.120Z,66.79
2022-10-03T03:05:18.661Z,66.24
2022-10-03T03:07:39.354Z,66.56
2022-10-03T03:10:05.323Z,66.62
2022-10-03T03:12:25.419Z,66.67
2022-10-03T03:14:40.102Z,66.38
2022-10-03T03:16:57.949Z,66.51
2022-10-03T03:19:11.268Z,66.16
2022-10-03T03:22:01.862Z,66.30
2022-10-03T03:24:14.446Z,66.00
2022-10-03T03:26:16.481Z,65.80
2022-10-03T03:28:24.640Z,65.81
2022-10-03T03:30:39.103Z,66.17
2022-10-03T03:33:12.887Z,66.89
2022-10-03T03:35:27.179Z,65.95
2022-10-03T03:37:44.151Z,66.46
2022-10-03T03:39:57.335Z,66.59
2022-10-03T03:42:41.062Z,66.30
2022-10-03T03:44:58.615Z,66.61
2022-10-03T03:47:16.749Z,66.38
2022-10-03T03:49:49.731Z,66.46
2022-10-03T03:52:02.293Z,65.75
2022-10-03T03:54:26.437Z,66.23
2022-10-03T03:56:49.401Z,66.63
2022-10-03T03:59:19.266Z,66.10
2022-10-03T04:01:52.266Z,66.26
2022-10-03T04:04:23.394Z,66.33
2022-10-03T04:06:40.567Z,66.38
2022-10-03T04:09:01.055Z,66.35
2022-10-03T04:11:18.581Z,66.17
2022-10-03T04:13:48.364Z,66.43
2022-10-03T04:15:56.569Z,66.82
2022-10-03T04:18:20.178Z,66.28
2022-10-03T04:20:26.855Z,66.45
2022-10-03T04:23:01.726Z,66.70
2022-10-03T04:25:41.275Z,66.73
2022-10-03T04:28:14.399Z,66.43
2022-10-03T04:30:20.930Z,66.22
2022-10-03T04:32:49.152Z,67.07
2022-10-03T04:34:51.221Z,66.11
2022-10-03T04:37:24.518Z,66.71
2022-10-03T04:40:13.695Z,66.67
2022-10-03T04:42:39.833Z,66.61
2022-10-03T04:45:00.788Z,67.00
2022-10-03T04:47:15.671Z,66.85
2022-10-03T04:49:37.511Z,66.46
2022-10-03T04:52:26.241Z,66.87
2022-10-03T04:54:53.281Z,66.93
2022-10-03T04:57:32.992Z,67.02
2022-10-03T04:59:38.142Z,66.08
2022-10-03T05:01:47.810Z,66.35
2022-10-03T05:04:10.838Z,66.88
2022-10-03T05:06:19.544Z,66.09
2022-10-03T05:08:30.471Z,66.45
2022-10-03T05:10:53.251Z,66.34
2022-10-03T05:13:27.428Z,66.54
2022-10-03T05:16:06.773Z,66.70
2022-10-03T05:18:11.608Z,66.06
2022-10-03T05:20:45.041Z,66.63
2022-10-03T05:23:17.675Z,66.43
2022-10-03T05:25:43.682Z,66.50
2022-10-03T05:27:52.240Z,65.68
2022-10-03T05:30:09.837Z,66.36
2022-10-03T05:32:21.006Z,66.04
2022-10-03T05:34:33.490Z,65.97
2022-10-03T05:36:53.107Z,66.13
2022-10-03T05:39:16.844Z,66.50
2022-10-03T05:41:35.848Z,66.17
2022-10-03T05:44:01.872Z,66.18
2022-10-03T05:46:21.633Z,66.56
2022-10-03T05:48:39.055Z,66.50
2022-10-03T05:51:14.987Z,66.64
2022-10-03T05:53:17.066Z,66.11
2022-10-03T05:55:48.229Z,66.64
2022-10-03T05:57:59.419Z,66.44
2022-10-03T06:00:01.380Z,66.07
2022-10-03T06:02:38.318Z,66.43
2022-10-03T06:05:17.038Z,66.52
2022-10-03T06:08:00.273Z,66.11
2022-10-03T06:10:08.323Z,66.35
2022-10-03T06:12:33.457Z,66.61
2022-10-03T06:15:10.795Z,67.39
2022-10-03T06:17:33.932Z,66.74
2022-10-03T06:19:44.816Z,66.60
2022-10-03T06:22:05.020Z,66.76
2022-10-03T06:24:35.043Z,67.14
2022-10-03T06:26:40.184Z,66.82
2022-10-03T06:29:19.681Z,66.66
2022-10-03T06:31:44.277Z,66.57
2022-10-03T06:34:01.588Z,66.69
2022-10-03T06:36:26.491Z,66.47
2022-10-03T06:38:40.686Z,66.62
2022-10-03T06:40:53.532Z,66.44
2022-10-03T06:42:58.494Z,66.36
2022-10-03T06:45:38.085Z,66.26
2022-10-03T06:47:52.758Z,66.21
2022-10-03T06:50:36.192Z,66.45
2022-10-03T06:53:02.533Z,66.19
2022-10-03T06:55:35.692Z,65.96
2022-10-03T06:57:51.520Z,65.74
2022-10-03T07:00:10.494Z,66.08
2022-10-03T07:02:39.163Z,65.91
2022-10-03T07:08:35.952Z,65.69
2022-10-03T07:10:48.349Z,65.51
2022-10-03T07:12:59.307Z,65.49
2022-10-03T07:16:02.094Z,65.76
2022-10-03T07:18:27.534Z,65.73
2022-10-03T07:21:06.742Z,65.95
2022-10-03T07:23:43.241Z,66.20
2022-10-03T07:26:12.921Z,65.87
2022-10-03T07:28:39.247Z,65.88
2022-10-03T07:31:03.246Z,65.68
2022-10-03T07:33:42.056Z,65.77
2022-10-03T07:36:30.613Z,65.76
2022-10-03T07:39:07.325Z,65.83
2022-10-03T07:41:43.732Z,65.74
2022-10-03T07:44:04.260Z,65.33
2022-10-03T07:46:28.905Z,65.15
2022-10-03T07:48:50.176Z,65.50
2022-10-03T07:51:13.882Z,65.31
2022-10-03T07:53:18.733Z,65.08
2022-10-03T07:55:39.427Z,65.05
2022-10-03T07:58:09.486Z,65.03
2022-10-03T08:00:17.990Z,64.65
2022-10-03T08:02:41.926Z,64.15
2022-10-03T08:05:16.074Z,64.37
2022-10-03T08:07:36.547Z,64.59
2022-10-03T08:10:02.516Z,64.32
2022-10-03T08:12:16.820Z,63.97
2022-10-03T08:14:37.754Z,64.14
2022-10-03T08:16:58.752Z,64.24
2022-10-03T08:19:23.238Z,64.08
2022-10-03T08:21:39.067Z,63.56
2022-10-03T08:24:04.769Z,63.67
2022-10-03T08:26:23.383Z,63.92
2022-10-03T08:29:09.004Z,63.70
2022-10-03T08:31:35.332Z,63.37
2022-10-03T08:34:10.922Z,64.00
2022-10-03T08:36:45.780Z,64.27
2022-10-03T08:38:59.856Z,63.53
2022-10-03T08:41:36.899Z,62.96
2022-10-03T08:44:07.354Z,62.70
2022-10-03T08:46:11.945Z,62.72
2022-10-03T08:48:34.771Z,62.57
2022-10-03T08:50:46.604Z,62.29
2022-10-03T08:53:20.676Z,61.70
2022-10-03T08:55:45.851Z,61.91
2022-10-03T08:57:59.044Z,60.61
2022-10-03T09:00:19.032Z,61.57
2022-10-03T09:02:33.179Z,61.29
2022-10-03T09:05:03.407Z,60.74
2022-10-03T09:07:19.741Z,60.99
2022-10-03T09:09:43.454Z,60.68
2022-10-03T09:12:25.400Z,61.01
2022-10-03T09:14:50.697Z,60.73
2022-10-03T09:16:55.322Z,61.08
2022-10-03T09:19:14.816Z,61.15
2022-10-03T09:21:38.287Z,60.70
2022-10-03T09:23:58.079Z,59.17
2022-10-03T09:26:26.319Z,59.20
2022-10-03T09:29:13.123Z,58.42
2022-10-03T09:31:31.206Z,58.99
2022-10-03T09:34:04.019Z,57.33
2022-10-03T09:36:43.300Z,58.36
2022-10-03T09:39:16.604Z,57.44
2022-10-03T09:41:42.178Z,58.07
2022-10-03T09:44:03.203Z,58.96
2022-10-03T09:46:46.689Z,54.96
2022-10-03T09:49:26.504Z,54.85
2022-10-03T09:51:40.212Z,55.92
2022-10-03T09:54:24.136Z,56.38
2022-10-03T09:56:26.312Z,57.51
2022-10-03T09:58:42.049Z,56.12
2022-10-03T10:01:15.845Z,56.83
2022-10-03T10:03:42.387Z,56.98
2022-10-03T10:06:00.521Z,56.55
2022-10-03T10:08:33.442Z,56.58
2022-10-03T10:11:03.454Z,55.46
2022-10-03T10:14:05.812Z,55.96
2022-10-03T10:16:49.663Z,52.67
2022-10-03T10:19:03.593Z,54.01
2022-10-03T10:21:23.877Z,54.97
2022-10-03T10:23:47.772Z,55.10
2022-10-03T10:26:30.012Z,53.46
2022-10-03T10:28:59.816Z,52.62
2022-10-03T10:31:07.655Z,54.33
2022-10-03T10:33:45.720Z,52.04
2022-10-03T10:36:19.457Z,52.07
2022-10-03T10:38:39.853Z,52.93
2022-10-03T10:40:47.678Z,51.70
2022-10-03T10:43:23.774Z,51.61
2022-10-03T10:45:54.310Z,52.38
2022-10-03T10:48:46.851Z,52.59
2022-10-03T10:51:06.619Z,53.30
2022-10-03T10:53:42.696Z,52.07
2022-10-03T10:56:23.036Z,53.09
2022-10-03T10:58:43.065Z,52.89
2022-10-03T11:00:50.720Z,51.26
2022-10-03T11:03:15.678Z,51.78
2022-10-03T11:05:36.501Z,51.92
2022-10-03T11:08:19.374Z,49.91
2022-10-03T11:10:33.182Z,51.13
2022-10-03T11:12:41.199Z,50.41
2022-10-03T11:15:11.145Z,50.21
2022-10-03T11:17:48.133Z,49.61
2022-10-03T11:20:11.792Z,49.47
2022-10-03T11:22:32.363Z,50.50
2022-10-03T11:24:59.587Z,49.22
2022-10-03T11:27:43.446Z,47.99
2022-10-03T11:30:23.302Z,49.54
2022-10-03T11:33:13.411Z,49.01
2022-10-03T11:35:45.350Z,46.91
2022-10-03T11:37:58.724Z,48.26
2022-10-03T11:40:22.069Z,45.88
2022-10-03T11:42:33.556Z,46.95
2022-10-03T11:44:45.265Z,47.13
2022-10-03T11:47:13.978Z,46.86
2022-10-03T11:49:36.205Z,47.59
2022-10-03T11:51:52.842Z,48.19
2022-10-03T11:54:30.955Z,48.09
2022-10-03T11:56:47.477Z,48.09
2022-10-03T11:58:55.382Z,48.65
2022-10-03T12:01:04.645Z,48.45
2022-10-03T12:03:16.177Z,48.83
2022-10-03T12:06:19.490Z,48.37
2022-10-03T12:08:53.574Z,47.28
2022-10-03T12:11:18.649Z,46.98
2022-10-03T12:13:35.066Z,46.80
2022-10-03T12:15:48.324Z,47.32
2022-10-03T12:18:07.081Z,47.48
2022-10-03T12:20:33.558Z,47.69
2022-10-03T12:22:54.186Z,46.96
2022-10-03T12:25:23.454Z,46.72
2022-10-03T12:27:47.637Z,46.34
2022-10-03T12:29:58.994Z,47.09
2022-10-03T12:32:20.102Z,47.11
2022-10-03T12:34:43.235Z,46.69
2022-10-03T12:37:03.901Z,48.08
2022-10-03T12:39:25.882Z,48.18
2022-10-03T12:41:56.702Z,48.91
2022-10-03T12:44:36.543Z,48.92
2022-10-03T12:46:48.196Z,49.33
2022-10-03T12:49:20.572Z,50.79
2022-10-03T12:51:44.989Z,50.64
2022-10-03T12:53:52.618Z,51.26
2022-10-03T12:56:11.916Z,51.90
2022-10-03T12:58:35.066Z,52.79
2022-10-03T13:00:49.659Z,52.01
2022-10-03T13:03:15.336Z,51.64
2022-10-03T13:05:37.806Z,52.32
2022-10-03T13:07:53.026Z,53.69
2022-10-03T13:10:17.077Z,53.55
2022-10-03T13:12:28.453Z,53.37
2022-10-03T13:14:41.615Z,53.44
2022-10-03T13:17:09.381Z,52.70
2022-10-03T13:19:30.125Z,53.54
2022-10-03T13:21:48.369Z,53.10
2022-10-03T13:23:58.775Z,54.68
2022-10-03T13:26:20.056Z,54.18
2022-10-03T13:28:28.157Z,54.67
2022-10-03T13:30:34.725Z,53.61
2022-10-03T13:32:43.310Z,52.43
2022-10-03T13:35:42.024Z,51.85
2022-10-03T13:37:59.919Z,51.81
2022-10-03T13:40:12.617Z,51.63
2022-10-03T13:42:14.472Z,51.27
2022-10-03T13:44:33.718Z,51.17
2022-10-03T13:46:57.294Z,51.66
2022-10-03T13:49:11.045Z,51.34
2022-10-03T13:51:37.197Z,50.36
2022-10-03T13:53:45.765Z,50.35
2022-10-03T13:56:01.749Z,49.89
2022-10-03T13:58:41.718Z,49.32
2022-10-03T14:00:52.647Z,48.99
2022-10-03T14:03:27.173Z,48.02
2022-10-03T14:05:32.035Z,48.40
2022-10-03T14:07:42.495Z,48.26
2022-10-03T14:10:30.123Z,47.75
2022-10-03T14:12:55.738Z,46.83
2022-10-03T14:15:17.149Z,48.07
2022-10-03T14:17:57.108Z,46.80
2022-10-03T14:20:07.775Z,47.99
2022-10-03T14:22:27.936Z,47.10
2022-10-03T14:24:38.579Z,47.41
2022-10-03T14:27:18.064Z,47.10
2022-10-03T14:29:41.521Z,46.26
2022-10-03T14:31:46.173Z,47.46
2022-10-03T14:33:48.429Z,47.04
2022-10-03T14:36:16.888Z,45.95
2022-10-03T14:39:02.316Z,45.97
2022-10-03T14:41:11.366Z,47.37
2022-10-03T14:43:42.774Z,46.47
2022-10-03T14:45:52.794Z,46.88
2022-10-03T14:48:01.306Z,46.71
2022-10-03T14:50:05.665Z,47.34
2022-10-03T14:52:19.003Z,47.13
2022-10-03T14:54:29.503Z,46.99
2022-10-03T14:57:00.244Z,47.41
2022-10-03T14:59:13.696Z,47.22
2022-10-03T15:01:20.828Z,47.54
2022-10-03T15:03:30.672Z,47.55
2022-10-03T15:05:36.094Z,47.54
2022-10-03T15:07:40.551Z,47.67
2022-10-03T15:09:50.269Z,47.08
2022-10-03T15:12:03.227Z,47.32
2022-10-03T15:14:10.261Z,47.36
2022-10-03T15:16:20.303Z,47.07
2022-10-03T15:18:24.869Z,47.57
2022-10-03T15:20:31.233Z,47.25
2022-10-03T15:22:49.460Z,46.72
2022-10-03T15:25:00.768Z,46.56
2022-10-03T15:27:13.488Z,46.33
2022-10-03T15:29:18.479Z,46.44
2022-10-03T15:31:42.184Z,45.61
2022-10-03T15:33:45.914Z,46.09
2022-10-03T15:35:55.179Z,45.72
2022-10-03T15:38:12.029Z,45.03
2022-10-03T15:40:34.022Z,45.70
2022-10-03T15:42:49.583Z,45.45
2022-10-03T15:45:07.452Z,45.65
2022-10-03T15:47:12.964Z,46.12
2022-10-03T15:49:21.081Z,46.68
2022-10-03T15:51:27.732Z,46.57
2022-10-03T15:53:37.190Z,46.89
2022-10-03T15:55:48.306Z,46.89
2022-10-03T15:57:53.973Z,47.29
2022-10-03T16:00:03.019Z,46.89
2022-10-03T16:02:21.267Z,46.86
2022-10-03T16:04:33.946Z,47.35
2022-10-03T16:06:53.643Z,47.40
2022-10-03T16:09:33.667Z,47.16
2022-10-03T16:12:04.152Z,48.48
2022-10-03T16:14:22.803Z,48.51
2022-10-03T16:16:42.815Z,48.98
2022-10-03T16:18:48.487Z,48.94
2022-10-03T16:20:57.895Z,48.94
2022-10-03T16:23:10.581Z,49.86
2022-10-03T16:25:18.416Z,49.85
2022-10-03T16:27:30.001Z,50.82
2022-10-03T16:29:37.524Z,50.59
2022-10-03T16:31:48.846Z,50.82
2022-10-03T16:34:12.447Z,50.92
2022-10-03T16:36:19.620Z,51.65
2022-10-03T16:38:44.183Z,51.51
2022-10-03T16:41:02.021Z,52.43
2022-10-03T16:43:12.603Z,52.00
2022-10-03T16:45:35.605Z,52.44
2022-10-03T16:47:38.707Z,51.83
2022-10-03T16:50:06.262Z,52.86
2022-10-03T16:52:34.790Z,52.81
2022-10-03T16:54:37.638Z,52.39
2022-10-03T16:56:44.772Z,53.41
2022-10-03T16:58:53.070Z,53.08
2022-10-03T17:01:26.003Z,52.62
2022-10-03T17:03:32.344Z,52.46
2022-10-03T17:05:46.215Z,54.69
2022-10-03T17:08:06.675Z,54.79
2022-10-03T17:10:31.959Z,54.48
2022-10-03T17:12:46.204Z,53.27
2022-10-03T17:14:49.141Z,53.18
2022-10-03T17:16:56.560Z,52.82
2022-10-03T17:19:14.646Z,53.48
2022-10-03T17:21:33.180Z,52.96
2022-10-03T17:23:56.486Z,53.86
2022-10-03T17:26:06.095Z,53.05
2022-10-03T17:28:15.351Z,53.44
2022-10-03T17:30:43.278Z,53.65
2022-10-03T17:32:53.438Z,53.32
2022-10-03T17:35:00.947Z,53.45
2022-10-03T17:37:12.355Z,53.51
2022-10-03T17:39:52.465Z,53.23
2022-10-03T17:42:03.670Z,54.80
2022-10-03T17:44:28.776Z,55.41
2022-10-03T17:47:04.697Z,54.39
2022-10-03T17:49:24.153Z,54.13
2022-10-03T17:51:36.914Z,53.88
2022-10-03T17:53:44.088Z,54.34
2022-10-03T17:55:57.310Z,53.67
2022-10-03T17:58:05.291Z,54.30
2022-10-03T18:00:18.317Z,54.41
2022-10-03T18:02:31.296Z,54.81
2022-10-03T18:04:40.140Z,56.07
2022-10-03T18:06:57.435Z,55.51
2022-10-03T18:09:07.475Z,56.36
2022-10-03T18:11:23.204Z,55.28
2022-10-03T18:13:35.161Z,55.78
2022-10-03T18:15:47.159Z,55.11
2022-10-03T18:17:59.868Z,55.59
2022-10-03T18:20:22.958Z,54.84
2022-10-03T18:22:38.528Z,55.92
2022-10-03T18:24:45.587Z,56.13
2022-10-03T18:27:32.378Z,56.58
2022-10-03T18:29:51.457Z,55.69
2022-10-03T18:31:58.992Z,55.69
2022-10-03T18:34:20.122Z,57.12
2022-10-03T18:36:58.986Z,57.49
2022-10-03T18:39:15.347Z,57.09
2022-10-03T18:41:19.175Z,55.77
2022-10-03T18:43:26.251Z,55.80
2022-10-03T18:45:41.940Z,55.71
2022-10-03T18:47:51.476Z,56.82
2022-10-03T18:49:59.328Z,56.72
2022-10-03T18:52:13.542Z,58.23
2022-10-03T18:54:27.571Z,58.65
2022-10-03T18:56:30.697Z,58.68
2022-10-03T18:58:45.067Z,60.03
2022-10-03T19:00:52.699Z,60.70
2022-10-03T19:03:03.935Z,59.48
2022-10-03T19:05:23.008Z,59.11
2022-10-03T19:07:28.217Z,59.21
2022-10-03T19:09:39.345Z,59.84
2022-10-03T19:12:01.637Z,60.04
2022-10-03T19:14:26.164Z,60.21
2022-10-03T19:17:05.842Z,60.28
2022-10-03T19:19:08.042Z,60.74
2022-10-03T19:21:21.219Z,60.24
2022-10-03T19:23:30.123Z,59.78
2022-10-03T19:25:39.327Z,59.68
2022-10-03T19:27:52.360Z,60.42
2022-10-03T19:29:59.427Z,60.26
2022-10-03T19:32:27.698Z,60.13
2022-10-03T19:34:35.444Z,60.49
2022-10-03T19:36:39.893Z,59.67
2022-10-03T19:38:46.335Z,59.79
2022-10-03T19:41:14.124Z,59.64
2022-10-03T19:43:16.406Z,59.13
2022-10-03T19:45:20.323Z,58.95
2022-10-03T19:47:34.023Z,58.55
2022-10-03T19:50:21.226Z,58.79
2022-10-03T19:52:32.400Z,58.90
2022-10-03T19:54:45.337Z,58.77
2022-10-03T19:56:48.017Z,58.43
2022-10-03T19:59:14.806Z,59.91
2022-10-03T20:01:17.175Z,58.98
2022-10-03T20:03:34.189Z,59.01
2022-10-03T20:05:51.100Z,59.54
2022-10-03T20:08:15.336Z,59.38
2022-10-03T20:10:39.707Z,59.44
2022-10-03T20:12:46.593Z,58.71
2022-10-03T20:14:56.325Z,58.78
2022-10-03T20:17:02.588Z,58.90
2022-10-03T20:19:15.075Z,60.05
2022-10-03T20:21:27.442Z,60.44
2022-10-03T20:23:33.075Z,60.53
2022-10-03T20:25:46.594Z,61.05
2022-10-03T20:27:57.730Z,61.30
2022-10-03T20:30:36.078Z,61.04
2022-10-03T20:32:43.755Z,60.74
2022-10-03T20:34:54.159Z,61.05
2022-10-03T20:37:16.998Z,61.07
2022-10-03T20:39:30.541Z,60.07
2022-10-03T20:41:42.491Z,60.26
2022-10-03T20:43:52.638Z,59.84
2022-10-03T20:46:06.560Z,60.16
2022-10-03T20:48:18.850Z,60.76
2022-10-03T20:50:20.998Z,59.62
2022-10-03T20:52:25.285Z,60.05
2022-10-03T20:54:35.668Z,60.12
2022-10-03T20:56:50.535Z,60.33
2022-10-03T20:58:58.519Z,59.70
2022-10-03T21:01:23.509Z,59.08
2022-10-03T21:04:07.340Z,60.58
2022-10-03T21:06:25.424Z,60.21
2022-10-03T21:08:38.099Z,60.09
2022-10-03T21:10:47.726Z,59.71
2022-10-03T21:13:02.961Z,59.87
2022-10-03T21:15:14.723Z,59.78
2022-10-03T21:17:20.365Z,59.85
2022-10-03T21:19:37.960Z,59.37
2022-10-03T21:21:47.631Z,58.94
2022-10-03T21:23:56.117Z,59.10
2022-10-03T21:26:01.455Z,58.99
2022-10-03T21:28:05.035Z,59.46
2022-10-03T21:30:23.355Z,59.65
2022-10-03T21:32:37.373Z,60.24
2022-10-03T21:34:58.510Z,59.29
2022-10-03T21:37:23.477Z,60.17
2022-10-03T21:39:36.583Z,59.48
2022-10-03T21:41:56.744Z,59.99
2022-10-03T21:44:02.514Z,59.74
2022-10-03T21:46:21.743Z,59.60
2022-10-03T21:56:27.998Z,60.60
2022-10-03T21:58:36.350Z,60.26
2022-10-03T22:01:13.375Z,60.84
2022-10-03T22:03:26.189Z,60.67
2022-10-03T22:05:50.628Z,61.38
2022-10-03T22:07:53.003Z,60.09
2022-10-03T22:09:59.434Z,59.89
2022-10-03T22:12:07.321Z,61.83
2022-10-03T22:14:41.627Z,62.00
2022-10-03T22:16:49.503Z,61.22
2022-10-03T22:19:07.101Z,61.96
2022-10-03T22:21:23.362Z,62.31
2022-10-03T22:23:50.733Z,62.26
2022-10-03T22:26:01.536Z,62.79
2022-10-03T22:28:48.712Z,63.47
2022-10-03T22:31:09.359Z,63.81
2022-10-03T22:33:34.454Z,63.17
2022-10-03T22:35:55.862Z,63.40
2022-10-03T22:37:58.128Z,62.29
2022-10-03T22:40:01.721Z,62.25
2022-10-03T22:42:06.890Z,61.92
2022-10-03T22:44:12.895Z,61.72
2022-10-03T22:46:26.265Z,62.39
2022-10-03T22:48:44.660Z,62.42
2022-10-03T22:50:47.642Z,62.06
2022-10-03T22:52:55.262Z,62.03
2022-10-03T22:54:58.312Z,62.06
2022-10-03T22:57:05.386Z,62.35
2022-10-03T22:59:33.853Z,62.27
2022-10-03T23:01:40.259Z,61.44
2022-10-03T23:03:43.101Z,61.51
2022-10-03T23:05:54.300Z,62.09
2022-10-03T23:08:10.552Z,62.29
2022-10-03T23:10:34.519Z,62.18
2022-10-03T23:12:48.161Z,61.79
2022-10-03T23:14:55.360Z,61.75
2022-10-03T23:17:34.080Z,62.86
2022-10-03T23:19:57.158Z,61.66
2022-10-03T23:22:03.401Z,62.04
2022-10-03T23:24:15.020Z,63.15
2022-10-03T23:26:56.607Z,63.34
2022-10-03T23:29:03.332Z,62.49
2022-10-03T23:31:05.808Z,62.45
2022-10-03T23:33:19.327Z,61.86
2022-10-03T23:35:41.817Z,62.17
2022-10-03T23:37:47.413Z,62.08
2022-10-03T23:39:58.428Z,62.08
2022-10-03T23:42:21.864Z,61.67
2022-10-03T23:45:10.632Z,62.37
2022-10-03T23:47:16.655Z,61.79
2022-10-03T23:49:20.820Z,62.18
2022-10-03T23:51:30.394Z,61.76
2022-10-03T23:53:47.159Z,61.42
2022-10-03T23:55:50.218Z,61.97
2022-10-03T23:57:52.434Z,61.76
2022-10-03T23:59:54.913Z,61.96
